Time;durP1;ratioP1;P1;durP2;ratioP2;P2;SDS_P1;SDS_P2;PMS_P1;PMS_P2;Temp;Humidity;BMP_temperature;BMP_pressure;BME280_temperature;BME280_humidity;BME280_pressure;Samples;Min_cycle;Max_cycle;Signal;HPM_P1;HPM_P2
2022/07/25 00:01:48;;;;;;;;;;;22.90;99.90;;;;;;5034978;28;20055;-79
2022/07/25 00:04:13;;;;;;;;;;;22.80;99.90;;;;;;5036640;28;19936;-81
2022/07/25 00:06:39;;;;;;;;;;;22.80;99.90;;;;;;5036661;28;19944;-84
2022/07/25 00:09:05;;;;;;;;;;;22.80;99.90;;;;;;5036653;28;20269;-84
2022/07/25 00:11:31;;;;;;;;;;;22.70;99.90;;;;;;5036872;28;19917;-81
2022/07/25 00:13:56;;;;;;;;;;;22.70;99.90;;;;;;5036999;28;19909;-81
2022/07/25 00:16:22;;;;;;;;;;;22.60;99.90;;;;;;5029495;28;20033;-81
2022/07/25 00:18:47;;;;;;;;;;;22.50;99.90;;;;;;5035749;28;19913;-81
2022/07/25 00:21:13;;;;;;;;;;;22.50;99.90;;;;;;5032338;28;19955;-84
2022/07/25 00:23:39;;;;;;;;;;;22.30;99.90;;;;;;5024790;28;19917;-80
2022/07/25 00:26:04;;;;;;;;;;;22.20;99.90;;;;;;5034593;28;19913;-82
2022/07/25 00:28:30;;;;;;;;;;;22.10;99.90;;;;;;5034705;28;19943;-85
2022/07/25 00:30:56;;;;;;;;;;;21.90;99.90;;;;;;5034967;28;19913;-85
2022/07/25 00:33:21;;;;;;;;;;;21.90;99.90;;;;;;5037435;28;20355;-80
2022/07/25 00:35:47;;;;;;;;;;;21.90;99.90;;;;;;5036654;28;19976;-84
2022/07/25 00:38:12;;;;;;;;;;;22.10;99.90;;;;;;5033281;28;19909;-80
2022/07/25 00:40:38;;;;;;;;;;;22.00;99.90;;;;;;5036862;28;20344;-85
2022/07/25 00:43:03;;;;;;;;;;;22.00;99.90;;;;;;5026890;28;19916;-85
2022/07/25 00:45:29;;;;;;;;;;;22.00;99.90;;;;;;5027670;28;19963;-86
2022/07/25 00:47:55;;;;;;;;;;;21.90;99.90;;;;;;5021922;28;19913;-86
2022/07/25 00:50:20;;;;;;;;;;;21.80;99.90;;;;;;5037146;28;19959;-86
2022/07/25 00:52:46;;;;;;;;;;;21.70;99.90;;;;;;5036304;28;19913;-85
2022/07/25 00:55:12;;;;;;;;;;;21.70;99.90;;;;;;5036677;28;19960;-85
2022/07/25 00:57:37;;;;;;;;;;;21.70;99.90;;;;;;5036456;28;20251;-84
2022/07/25 01:00:05;;;;;;;;;;;21.60;99.90;;;;;;5036843;28;19972;-80
2022/07/25 01:02:31;;;;;;;;;;;21.60;99.90;;;;;;5025011;28;19919;-86
2022/07/25 01:04:57;;;;;;;;;;;21.60;99.90;;;;;;5036058;28;19909;-86
2022/07/25 01:07:24;;;;;;;;;;;21.50;99.90;;;;;;5036748;28;19913;-85
2022/07/25 01:09:50;;;;;;;;;;;21.50;99.90;;;;;;5050243;28;19971;-80
2022/07/25 01:12:15;;;;;;;;;;;21.50;99.90;;;;;;5031655;28;20273;-84
2022/07/25 01:14:41;;;;;;;;;;;21.50;99.90;;;;;;5035812;28;19917;-85
2022/07/25 01:17:06;;;;;;;;;;;21.40;99.90;;;;;;5026915;28;19917;-81
2022/07/25 01:19:32;;;;;;;;;;;21.30;99.90;;;;;;5037253;28;19979;-84
2022/07/25 01:21:58;;;;;;;;;;;21.30;99.90;;;;;;5035781;28;20323;-84
2022/07/25 01:24:23;;;;;;;;;;;21.30;99.90;;;;;;5034378;28;19909;-84
2022/07/25 01:26:49;;;;;;;;;;;21.20;99.90;;;;;;5035441;28;19913;-85
2022/07/25 01:29:14;;;;;;;;;;;21.10;99.90;;;;;;5035744;28;20371;-86
2022/07/25 01:31:40;;;;;;;;;;;21.10;99.90;;;;;;5034681;28;19956;-84
2022/07/25 01:34:05;;;;;;;;;;;21.00;99.90;;;;;;5035689;28;19991;-85
2022/07/25 01:36:31;;;;;;;;;;;21.00;99.90;;;;;;5036227;28;20255;-85
2022/07/25 01:38:57;;;;;;;;;;;21.00;99.90;;;;;;5034977;28;19910;-84
2022/07/25 01:41:22;;;;;;;;;;;21.00;99.90;;;;;;5032192;28;20260;-85
2022/07/25 01:43:48;;;;;;;;;;;21.00;99.90;;;;;;5035074;28;19909;-85
2022/07/25 01:46:13;;;;;;;;;;;21.00;99.90;;;;;;5034616;28;19917;-83
2022/07/25 01:48:39;;;;;;;;;;;20.90;99.90;;;;;;5035613;28;19955;-82
2022/07/25 01:51:05;;;;;;;;;;;20.80;99.90;;;;;;5036832;28;20004;-85
2022/07/25 01:53:31;;;;;;;;;;;20.70;99.90;;;;;;5034284;28;20004;-85
2022/07/25 01:55:56;;;;;;;;;;;20.80;99.90;;;;;;5035155;28;20009;-85
2022/07/25 01:58:22;;;;;;;;;;;20.70;99.90;;;;;;5034766;28;20004;-84
2022/07/25 02:00:47;;;;;;;;;;;20.70;99.90;;;;;;5034140;28;19913;-84
2022/07/25 02:03:31;;;;;;;;;;;20.80;99.90;;;;;;5032899;28;19913;-83
2022/07/25 02:06:05;;;;;;;;;;;20.80;99.90;;;;;;5043292;28;19917;-85
2022/07/25 02:08:31;;;;;;;;;;;20.70;99.90;;;;;;5033831;28;19924;-84
2022/07/25 02:10:57;;;;;;;;;;;20.70;99.90;;;;;;5035027;28;20207;-82
2022/07/25 02:13:22;;;;;;;;;;;20.70;99.90;;;;;;5034260;28;19913;-84
2022/07/25 02:15:48;;;;;;;;;;;20.70;99.90;;;;;;5033877;28;20216;-84
2022/07/25 02:18:14;;;;;;;;;;;20.70;99.90;;;;;;5033670;28;19959;-82
2022/07/25 02:20:39;;;;;;;;;;;20.70;99.90;;;;;;5035588;28;19920;-84
2022/07/25 02:23:05;;;;;;;;;;;20.70;99.90;;;;;;5033622;28;19917;-81
2022/07/25 02:25:31;;;;;;;;;;;20.70;99.90;;;;;;5033297;28;19920;-81
2022/07/25 02:27:57;;;;;;;;;;;20.70;99.90;;;;;;5031336;28;19913;-82
2022/07/25 02:30:22;;;;;;;;;;;20.60;99.90;;;;;;5033498;28;19924;-82
2022/07/25 02:32:48;;;;;;;;;;;20.60;99.90;;;;;;5034866;28;19909;-81
2022/07/25 02:35:13;;;;;;;;;;;20.60;99.90;;;;;;5031050;28;20047;-81
2022/07/25 02:37:39;;;;;;;;;;;20.60;99.90;;;;;;5033162;28;19913;-83
2022/07/25 02:40:05;;;;;;;;;;;20.50;99.90;;;;;;5034367;28;19913;-82
2022/07/25 02:42:30;;;;;;;;;;;20.40;99.90;;;;;;5033927;28;20204;-81
2022/07/25 02:44:56;;;;;;;;;;;20.40;99.90;;;;;;5031779;28;20008;-81
2022/07/25 02:47:22;;;;;;;;;;;20.30;99.90;;;;;;5031670;28;19971;-81
2022/07/25 02:49:47;;;;;;;;;;;20.10;99.90;;;;;;5031777;28;19917;-81
2022/07/25 02:52:13;;;;;;;;;;;20.10;99.90;;;;;;5035110;28;20323;-82
2022/07/25 02:54:38;;;;;;;;;;;20.10;99.90;;;;;;5033327;28;19913;-83
2022/07/25 02:57:04;;;;;;;;;;;20.10;99.90;;;;;;5032630;28;19913;-82
2022/07/25 02:59:29;;;;;;;;;;;20.10;99.90;;;;;;5032764;28;19917;-82
2022/07/25 03:01:55;;;;;;;;;;;20.00;99.90;;;;;;5022987;28;19972;-82
2022/07/25 03:04:21;;;;;;;;;;;20.00;99.90;;;;;;5024384;28;20285;-82
2022/07/25 03:06:47;;;;;;;;;;;20.00;99.90;;;;;;5029541;28;19921;-81
2022/07/25 03:09:12;;;;;;;;;;;20.00;99.90;;;;;;5026007;28;19936;-80
2022/07/25 03:11:38;;;;;;;;;;;20.00;99.90;;;;;;5032570;28;19982;-80
2022/07/25 03:14:03;;;;;;;;;;;20.10;99.90;;;;;;5033206;28;19917;-80
2022/07/25 03:16:29;;;;;;;;;;;20.20;99.90;;;;;;5032326;28;19921;-81
2022/07/25 03:18:54;;;;;;;;;;;20.20;99.90;;;;;;5045633;28;20606;-81
2022/07/25 03:21:20;;;;;;;;;;;20.30;99.90;;;;;;5036840;28;19917;-81
2022/07/25 03:23:46;;;;;;;;;;;20.30;99.90;;;;;;5028817;28;19956;-80
2022/07/25 03:26:11;;;;;;;;;;;20.20;99.90;;;;;;5031522;28;20228;-85
2022/07/25 03:28:37;;;;;;;;;;;20.20;99.90;;;;;;5036589;28;20220;-85
2022/07/25 03:31:03;;;;;;;;;;;20.20;99.90;;;;;;5035703;28;19913;-80
2022/07/25 03:33:28;;;;;;;;;;;20.10;99.90;;;;;;5033111;28;19932;-80
2022/07/25 03:35:55;;;;;;;;;;;20.00;99.90;;;;;;5034546;28;20391;-79
2022/07/25 03:38:20;;;;;;;;;;;19.90;99.90;;;;;;5031876;28;19917;-84
2022/07/25 03:40:46;;;;;;;;;;;19.90;99.90;;;;;;5036981;28;20332;-80
2022/07/25 03:43:12;;;;;;;;;;;19.90;99.90;;;;;;5038379;28;19967;-83
2022/07/25 03:45:38;;;;;;;;;;;19.90;99.90;;;;;;5036273;28;20323;-82
2022/07/25 03:48:03;;;;;;;;;;;19.90;99.90;;;;;;5037069;28;19920;-84
2022/07/25 03:50:29;;;;;;;;;;;19.90;99.90;;;;;;5035952;28;19952;-82
2022/07/25 03:52:54;;;;;;;;;;;20.00;99.90;;;;;;5037463;28;20367;-80
2022/07/25 03:55:20;;;;;;;;;;;20.00;99.90;;;;;;5037329;28;19961;-81
2022/07/25 03:57:45;;;;;;;;;;;20.10;99.90;;;;;;5036962;28;19948;-85
2022/07/25 04:00:11;;;;;;;;;;;20.10;99.90;;;;;;5036548;28;20334;-85
2022/07/25 04:02:37;;;;;;;;;;;20.10;99.90;;;;;;5031998;28;20324;-85
2022/07/25 04:05:04;;;;;;;;;;;20.00;99.90;;;;;;5037372;28;20285;-85
2022/07/25 04:07:30;;;;;;;;;;;20.00;99.90;;;;;;5037050;28;19996;-85
2022/07/25 04:09:55;;;;;;;;;;;20.00;99.90;;;;;;5036844;28;20240;-85
2022/07/25 04:12:21;;;;;;;;;;;20.00;99.90;;;;;;5035697;28;20806;-81
2022/07/25 04:14:46;;;;;;;;;;;20.00;99.90;;;;;;5037886;28;19948;-82
2022/07/25 04:17:12;;;;;;;;;;;20.00;99.90;;;;;;5036315;28;19921;-83
2022/07/25 04:19:37;;;;;;;;;;;20.00;99.90;;;;;;5037095;28;19916;-84
2022/07/25 04:22:03;;;;;;;;;;;20.10;99.90;;;;;;5037391;28;19909;-84
2022/07/25 04:24:29;;;;;;;;;;;20.10;99.90;;;;;;5036369;28;20296;-83
2022/07/25 04:26:54;;;;;;;;;;;20.20;99.90;;;;;;5036501;28;19917;-84
2022/07/25 04:29:20;;;;;;;;;;;20.20;99.90;;;;;;5037706;28;20251;-82
2022/07/25 04:31:45;;;;;;;;;;;20.20;99.90;;;;;;5036164;28;19921;-84
2022/07/25 04:34:11;;;;;;;;;;;20.20;99.90;;;;;;5035140;28;19913;-83
2022/07/25 04:36:36;;;;;;;;;;;20.30;99.90;;;;;;5035043;28;19921;-82
2022/07/25 04:39:02;;;;;;;;;;;20.30;99.90;;;;;;5035514;28;19936;-84
2022/07/25 04:41:27;;;;;;;;;;;20.20;99.90;;;;;;5020031;28;19924;-82
2022/07/25 04:43:53;;;;;;;;;;;20.20;99.90;;;;;;5034343;28;19920;-81
2022/07/25 04:46:19;;;;;;;;;;;20.20;99.90;;;;;;5035740;28;19923;-84
2022/07/25 04:48:45;;;;;;;;;;;20.20;99.90;;;;;;5035757;28;19917;-84
2022/07/25 04:51:10;;;;;;;;;;;20.20;99.90;;;;;;5037287;28;19932;-84
2022/07/25 04:53:36;;;;;;;;;;;20.20;99.90;;;;;;5035123;28;19913;-84
2022/07/25 04:56:01;;;;;;;;;;;20.30;99.90;;;;;;5036758;28;19917;-84
2022/07/25 04:58:27;;;;;;;;;;;20.30;99.90;;;;;;5034809;28;19959;-85
2022/07/25 05:00:52;;;;;;;;;;;20.30;99.90;;;;;;5036314;28;19920;-84
2022/07/25 05:03:18;;;;;;;;;;;20.30;99.90;;;;;;5034812;28;19917;-84
2022/07/25 05:05:43;;;;;;;;;;;20.30;99.90;;;;;;5034879;28;19917;-83
2022/07/25 05:08:09;;;;;;;;;;;20.30;99.90;;;;;;5033511;28;19955;-84
2022/07/25 05:10:34;;;;;;;;;;;20.40;99.90;;;;;;5036084;28;19923;-84
2022/07/25 05:13:00;;;;;;;;;;;20.50;99.90;;;;;;5035623;28;19921;-82
2022/07/25 05:15:26;;;;;;;;;;;20.50;99.90;;;;;;5038502;28;20317;-83
2022/07/25 05:17:51;;;;;;;;;;;20.50;99.90;;;;;;5034706;28;20224;-83
2022/07/25 05:20:17;;;;;;;;;;;20.60;99.90;;;;;;5034797;28;20358;-84
2022/07/25 05:22:42;;;;;;;;;;;20.60;99.90;;;;;;5039908;28;19913;-82
2022/07/25 05:25:09;;;;;;;;;;;20.60;99.90;;;;;;5034959;28;19913;-84
2022/07/25 05:27:35;;;;;;;;;;;20.70;99.90;;;;;;5058555;28;19932;-83
2022/07/25 05:30:01;;;;;;;;;;;20.80;99.90;;;;;;5046946;28;19971;-83
2022/07/25 05:32:26;;;;;;;;;;;20.80;99.90;;;;;;5048122;28;19944;-83
2022/07/25 05:34:52;;;;;;;;;;;20.90;99.90;;;;;;5043402;28;19952;-84
2022/07/25 05:37:18;;;;;;;;;;;21.00;99.90;;;;;;5043786;28;19925;-83
2022/07/25 05:39:43;;;;;;;;;;;21.00;99.90;;;;;;5041143;28;20031;-82
2022/07/25 05:42:09;;;;;;;;;;;21.10;99.90;;;;;;5036162;28;20308;-84
2022/07/25 05:44:34;;;;;;;;;;;21.20;99.90;;;;;;5034661;28;19968;-83
2022/07/25 05:47:00;;;;;;;;;;;21.20;99.90;;;;;;5034572;28;19921;-81
2022/07/25 05:49:25;;;;;;;;;;;21.30;99.90;;;;;;5031306;28;19921;-83
2022/07/25 05:51:51;;;;;;;;;;;21.40;99.90;;;;;;5034869;28;19917;-81
2022/07/25 05:54:17;;;;;;;;;;;21.50;99.90;;;;;;5034060;28;20331;-83
2022/07/25 05:56:42;;;;;;;;;;;21.60;99.90;;;;;;5033993;28;19917;-84
2022/07/25 05:59:08;;;;;;;;;;;21.70;99.90;;;;;;5034500;28;19917;-82
2022/07/25 06:01:33;;;;;;;;;;;21.70;99.90;;;;;;5035610;28;19935;-80
2022/07/25 06:03:59;;;;;;;;;;;21.80;99.90;;;;;;5034762;28;19936;-81
2022/07/25 06:06:24;;;;;;;;;;;21.80;99.90;;;;;;5035109;28;19917;-82
2022/07/25 06:08:50;;;;;;;;;;;21.90;99.90;;;;;;5034690;28;19921;-82
2022/07/25 06:11:16;;;;;;;;;;;21.90;99.90;;;;;;5035373;28;19913;-82
2022/07/25 06:13:41;;;;;;;;;;;21.90;99.90;;;;;;5034288;28;19917;-83
2022/07/25 06:16:07;;;;;;;;;;;21.90;99.90;;;;;;5033738;28;19976;-83
2022/07/25 06:18:33;;;;;;;;;;;22.00;99.90;;;;;;5033628;28;20565;-81
2022/07/25 06:20:59;;;;;;;;;;;22.00;99.90;;;;;;5048243;28;19919;-84
2022/07/25 06:23:24;;;;;;;;;;;22.00;99.90;;;;;;5032755;28;20011;-82
2022/07/25 06:25:50;;;;;;;;;;;22.00;99.90;;;;;;5033477;28;19927;-83
2022/07/25 06:28:16;;;;;;;;;;;22.20;99.90;;;;;;5034957;28;19920;-82
2022/07/25 06:30:42;;;;;;;;;;;22.30;99.90;;;;;;5031608;28;19952;-83
2022/07/25 06:33:08;;;;;;;;;;;22.50;99.90;;;;;;5034957;28;19932;-91
2022/07/25 06:35:33;;;;;;;;;;;22.50;99.90;;;;;;5033454;28;20015;-80
2022/07/25 06:38:00;;;;;;;;;;;22.60;99.90;;;;;;5033857;28;20007;-80
2022/07/25 06:40:26;;;;;;;;;;;22.60;99.90;;;;;;5034428;28;20341;-83
2022/07/25 06:42:51;;;;;;;;;;;22.60;99.90;;;;;;5033592;28;20019;-80
2022/07/25 06:45:17;;;;;;;;;;;22.60;99.90;;;;;;5033895;28;19913;-80
2022/07/25 06:47:42;;;;;;;;;;;22.60;99.90;;;;;;5031342;28;19966;-85
2022/07/25 06:50:10;;;;;;;;;;;22.50;99.90;;;;;;5032629;28;19917;-83
2022/07/25 06:52:35;;;;;;;;;;;22.40;99.90;;;;;;5029498;28;19963;-81
2022/07/25 06:55:04;;;;;;;;;;;22.40;99.90;;;;;;5032138;28;20007;-80
2022/07/25 06:57:30;;;;;;;;;;;22.30;99.90;;;;;;5029525;28;19917;-79
2022/07/25 06:59:55;;;;;;;;;;;22.30;99.90;;;;;;5032021;28;20236;-80
2022/07/25 07:02:21;;;;;;;;;;;22.20;99.90;;;;;;5032245;28;20019;-82
2022/07/25 07:04:46;;;;;;;;;;;22.20;99.90;;;;;;5032720;28;19921;-79
2022/07/25 07:07:12;;;;;;;;;;;22.20;99.90;;;;;;5031257;28;19917;-80
2022/07/25 07:09:38;;;;;;;;;;;22.10;99.90;;;;;;5029255;28;19924;-81
2022/07/25 07:12:03;;;;;;;;;;;22.10;99.90;;;;;;5029342;28;19988;-82
2022/07/25 07:14:29;;;;;;;;;;;22.00;99.90;;;;;;5031394;28;20362;-80
2022/07/25 07:16:54;;;;;;;;;;;22.00;99.90;;;;;;5027553;28;19968;-80
2022/07/25 07:19:20;;;;;;;;;;;21.90;99.90;;;;;;5027474;28;19921;-82
2022/07/25 07:21:45;;;;;;;;;;;21.90;99.90;;;;;;5029005;28;19917;-80
2022/07/25 07:24:11;;;;;;;;;;;21.90;99.90;;;;;;5028742;28;19921;-80
2022/07/25 07:26:36;;;;;;;;;;;22.00;99.90;;;;;;5031147;28;19921;-80
2022/07/25 07:29:02;;;;;;;;;;;22.00;99.90;;;;;;5026361;28;19933;-80
2022/07/25 07:31:28;;;;;;;;;;;22.10;99.90;;;;;;5027910;28;19923;-79
2022/07/25 07:33:54;;;;;;;;;;;22.10;99.90;;;;;;5025936;28;19913;-79
2022/07/25 07:36:19;;;;;;;;;;;22.10;99.90;;;;;;5029722;28;19913;-82
2022/07/25 07:38:45;;;;;;;;;;;22.20;99.90;;;;;;5034365;28;19916;-79
2022/07/25 07:41:11;;;;;;;;;;;22.30;99.90;;;;;;5034725;28;20510;-80
2022/07/25 07:43:37;;;;;;;;;;;22.30;99.90;;;;;;5015632;28;20008;-78
2022/07/25 07:46:03;;;;;;;;;;;22.40;99.90;;;;;;5034093;28;20004;-80
2022/07/25 07:48:29;;;;;;;;;;;22.40;99.90;;;;;;5032547;28;19921;-83
2022/07/25 07:50:55;;;;;;;;;;;22.40;99.90;;;;;;5032284;28;19951;-79
2022/07/25 07:53:21;;;;;;;;;;;22.30;99.90;;;;;;5049127;28;19956;-82
2022/07/25 07:55:54;;;;;;;;;;;22.20;99.90;;;;;;5032691;28;19968;-82
2022/07/25 07:58:19;;;;;;;;;;;22.10;99.90;;;;;;5033191;28;19921;-79
2022/07/25 08:00:46;;;;;;;;;;;22.00;99.90;;;;;;5032778;28;19913;-80
2022/07/25 08:03:12;;;;;;;;;;;22.00;99.90;;;;;;5034124;28;19968;-84
2022/07/25 08:05:42;;;;;;;;;;;22.00;99.90;;;;;;5036414;28;19939;-85
2022/07/25 08:08:09;;;;;;;;;;;22.00;99.90;;;;;;5034446;28;19925;-79
2022/07/25 08:10:36;;;;;;;;;;;22.20;99.90;;;;;;5036842;28;19921;-81
2022/07/25 08:13:11;;;;;;;;;;;22.30;99.90;;;;;;5036460;28;19924;-78
2022/07/25 08:15:36;;;;;;;;;;;22.20;99.90;;;;;;5035770;28;19925;-84
2022/07/25 08:18:03;;;;;;;;;;;22.30;99.90;;;;;;5039756;28;19975;-80
2022/07/25 08:20:29;;;;;;;;;;;22.30;99.90;;;;;;5035882;28;19913;-81
2022/07/25 08:22:54;;;;;;;;;;;22.50;99.90;;;;;;5036185;28;19924;-78
2022/07/25 08:25:23;;;;;;;;;;;22.60;99.90;;;;;;5034816;28;22027;-80
2022/07/25 08:27:49;;;;;;;;;;;22.90;99.90;;;;;;5035654;28;19913;-83
2022/07/25 08:30:15;;;;;;;;;;;23.00;99.90;;;;;;5035869;28;19921;-81
2022/07/25 08:32:48;;;;;;;;;;;23.00;99.90;;;;;;5037178;28;19923;-79
2022/07/25 08:35:14;;;;;;;;;;;23.00;99.90;;;;;;5033628;28;20261;-83
2022/07/25 08:37:40;;;;;;;;;;;23.30;99.90;;;;;;5036840;28;20012;-82
2022/07/25 08:40:06;;;;;;;;;;;23.60;99.90;;;;;;5036734;28;19996;-91
2022/07/25 08:42:32;;;;;;;;;;;23.80;99.90;;;;;;5034774;28;19983;-84
2022/07/25 08:45:01;;;;;;;;;;;23.80;99.90;;;;;;5052851;28;19923;-77
2022/07/25 08:47:28;;;;;;;;;;;23.60;99.90;;;;;;5036736;28;19921;-81
2022/07/25 08:49:54;;;;;;;;;;;23.50;99.90;;;;;;5034420;28;19925;-80
2022/07/25 08:52:20;;;;;;;;;;;23.40;99.90;;;;;;5036427;28;19916;-83
2022/07/25 08:54:48;;;;;;;;;;;23.30;99.90;;;;;;5035968;28;19921;-84
2022/07/25 08:57:14;;;;;;;;;;;23.40;99.90;;;;;;5035388;28;19964;-81
2022/07/25 08:59:40;;;;;;;;;;;23.60;99.90;;;;;;5034709;28;19921;-81
2022/07/25 09:02:09;;;;;;;;;;;23.70;99.90;;;;;;5036778;28;19928;-80
2022/07/25 09:04:35;;;;;;;;;;;23.60;99.90;;;;;;5035307;28;19917;-82
2022/07/25 09:07:03;;;;;;;;;;;23.50;99.90;;;;;;5033724;28;20296;-80
2022/07/25 09:09:33;;;;;;;;;;;23.50;99.90;;;;;;5030439;28;19936;-84
2022/07/25 09:11:58;;;;;;;;;;;23.40;99.90;;;;;;5034036;28;19955;-78
2022/07/25 09:14:24;;;;;;;;;;;23.50;99.90;;;;;;5035122;28;19945;-80
2022/07/25 09:16:52;;;;;;;;;;;23.60;99.90;;;;;;5036995;28;19929;-79
2022/07/25 09:19:19;;;;;;;;;;;24.00;99.90;;;;;;5034649;28;20225;-77
2022/07/25 09:21:56;;;;;;;;;;;24.10;99.90;;;;;;5032577;28;19924;-79
2022/07/25 09:24:22;;;;;;;;;;;24.30;99.90;;;;;;5035471;28;19921;-83
2022/07/25 09:26:48;;;;;;;;;;;24.40;99.90;;;;;;5032229;28;19932;-80
2022/07/25 09:29:15;;;;;;;;;;;24.30;99.90;;;;;;5033935;28;19970;-79
2022/07/25 09:31:41;;;;;;;;;;;24.50;99.90;;;;;;5033357;28;20223;-79
2022/07/25 09:34:08;;;;;;;;;;;24.50;99.90;;;;;;5033815;28;20427;-80
2022/07/25 09:36:34;;;;;;;;;;;24.50;99.90;;;;;;5035035;28;19917;-82
2022/07/25 09:39:01;;;;;;;;;;;24.40;99.90;;;;;;5034069;28;19939;-79
2022/07/25 09:41:37;;;;;;;;;;;24.30;99.90;;;;;;5035169;28;20268;-84
2022/07/25 09:44:03;;;;;;;;;;;24.10;99.90;;;;;;5038402;28;19921;-82
2022/07/25 09:46:30;;;;;;;;;;;24.00;99.90;;;;;;5034788;28;20355;-80
2022/07/25 09:48:57;;;;;;;;;;;23.70;99.90;;;;;;5035096;28;19921;-80
2022/07/25 09:51:23;;;;;;;;;;;23.50;99.90;;;;;;5020260;28;19912;-80
2022/07/25 09:53:49;;;;;;;;;;;23.30;99.90;;;;;;5034878;28;19953;-80
2022/07/25 09:56:15;;;;;;;;;;;23.20;99.90;;;;;;5034309;28;19959;-78
2022/07/25 09:58:40;;;;;;;;;;;23.10;99.90;;;;;;5034750;28;19913;-82
2022/07/25 10:01:06;;;;;;;;;;;23.10;99.90;;;;;;5034529;28;20051;-81
2022/07/25 10:03:48;;;;;;;;;;;23.30;99.90;;;;;;5030550;28;19986;-78
2022/07/25 10:06:24;;;;;;;;;;;23.40;99.90;;;;;;5035083;28;19913;-84
2022/07/25 10:08:50;;;;;;;;;;;23.30;99.90;;;;;;5033146;28;19931;-83
2022/07/25 10:11:23;;;;;;;;;;;23.20;99.90;;;;;;5034142;28;19913;-78
2022/07/25 10:13:49;;;;;;;;;;;23.20;99.90;;;;;;5035613;28;19959;-81
2022/07/25 10:16:16;;;;;;;;;;;23.40;99.90;;;;;;5036036;28;19949;-80
2022/07/25 10:18:47;;;;;;;;;;;23.50;99.90;;;;;;5035286;28;19917;-79
2022/07/25 10:21:13;;;;;;;;;;;24.00;99.90;;;;;;5047674;28;19921;-76
2022/07/25 10:23:38;;;;;;;;;;;24.60;99.90;;;;;;5033951;28;19921;-77
2022/07/25 10:26:15;;;;;;;;;;;24.80;99.90;;;;;;5031863;28;19948;-75
2022/07/25 10:28:44;;;;;;;;;;;25.00;99.90;;;;;;5036382;28;19928;-77
2022/07/25 10:31:20;;;;;;;;;;;25.30;99.90;;;;;;5038159;28;20343;-80
2022/07/25 10:33:47;;;;;;;;;;;25.50;99.90;;;;;;5039150;28;19913;-79
2022/07/25 10:36:13;;;;;;;;;;;25.50;99.90;;;;;;5032302;28;19917;-76
2022/07/25 10:38:40;;;;;;;;;;;25.40;99.90;;;;;;5034788;28;20335;-78
2022/07/25 10:41:07;;;;;;;;;;;25.10;99.90;;;;;;5031500;28;20384;-79
2022/07/25 10:43:37;;;;;;;;;;;24.90;99.90;;;;;;5030095;28;19952;-77
2022/07/25 10:46:09;;;;;;;;;;;24.70;99.90;;;;;;5029710;28;20004;-74
2022/07/25 10:48:36;;;;;;;;;;;24.50;99.90;;;;;;5031124;28;19913;-76
2022/07/25 10:51:05;;;;;;;;;;;24.40;99.90;;;;;;5031338;28;19917;-76
2022/07/25 10:53:32;;;;;;;;;;;24.20;99.90;;;;;;5030663;28;20043;-76
2022/07/25 10:56:01;;;;;;;;;;;24.00;99.90;;;;;;5030300;28;20410;-78
2022/07/25 10:58:27;;;;;;;;;;;23.90;99.90;;;;;;5012065;28;19921;-76
2022/07/25 11:00:52;;;;;;;;;;;23.90;99.90;;;;;;5030808;28;19939;-81
2022/07/25 11:03:19;;;;;;;;;;;23.80;99.90;;;;;;5028253;28;19924;-76
2022/07/25 11:05:45;;;;;;;;;;;23.70;99.90;;;;;;5031195;28;20016;-81
2022/07/25 11:08:11;;;;;;;;;;;23.70;99.90;;;;;;5029584;28;20403;-78
2022/07/25 11:10:37;;;;;;;;;;;23.80;99.90;;;;;;5031090;28;20003;-79
2022/07/25 11:13:02;;;;;;;;;;;23.90;99.90;;;;;;5028203;28;19931;-77
2022/07/25 11:15:28;;;;;;;;;;;23.80;99.90;;;;;;5026151;28;19929;-79
2022/07/25 11:17:54;;;;;;;;;;;23.40;99.90;;;;;;5028664;28;19917;-82
2022/07/25 11:20:20;;;;;;;;;;;23.10;99.90;;;;;;5029853;28;19917;-77
2022/07/25 11:22:52;;;;;;;;;;;22.90;99.90;;;;;;5031314;28;20194;-76
2022/07/25 11:25:19;;;;;;;;;;;22.80;99.90;;;;;;5029720;28;19913;-82
2022/07/25 11:27:48;;;;;;;;;;;22.80;99.90;;;;;;5028910;28;19986;-78
2022/07/25 11:30:15;;;;;;;;;;;22.70;99.90;;;;;;5030871;28;19928;-76
2022/07/25 11:32:40;;;;;;;;;;;22.80;99.90;;;;;;5030918;28;19932;-80
2022/07/25 11:35:06;;;;;;;;;;;22.90;99.90;;;;;;5033345;28;20314;-80
2022/07/25 11:37:34;;;;;;;;;;;23.00;99.90;;;;;;5030664;28;20299;-78
2022/07/25 11:39:59;;;;;;;;;;;22.90;99.90;;;;;;5033637;28;19941;-78
2022/07/25 11:42:27;;;;;;;;;;;22.80;99.90;;;;;;5035566;28;20590;-80
2022/07/25 11:44:53;;;;;;;;;;;22.90;99.90;;;;;;5035300;28;19921;-78
2022/07/25 11:47:29;;;;;;;;;;;23.20;99.90;;;;;;5028422;28;19921;-76
2022/07/25 11:50:02;;;;;;;;;;;23.40;99.90;;;;;;5029497;28;19932;-75
2022/07/25 11:52:31;;;;;;;;;;;23.60;99.90;;;;;;5016423;28;19921;-79
2022/07/25 11:54:58;;;;;;;;;;;23.80;99.90;;;;;;5032652;28;19924;-79
2022/07/25 11:57:24;;;;;;;;;;;23.90;99.90;;;;;;5032547;28;19967;-75
2022/07/25 11:59:51;;;;;;;;;;;23.80;99.90;;;;;;5033459;28;19921;-75
2022/07/25 12:02:23;;;;;;;;;;;23.90;99.90;;;;;;5034171;28;19927;-78
2022/07/25 12:04:52;;;;;;;;;;;23.90;99.90;;;;;;5033623;28;19917;-77
2022/07/25 12:07:18;;;;;;;;;;;23.90;99.90;;;;;;5034238;28;20356;-80
2022/07/25 12:09:53;;;;;;;;;;;23.70;99.90;;;;;;5036199;28;19924;-82
2022/07/25 12:12:19;;;;;;;;;;;23.60;99.90;;;;;;5036434;28;20228;-77
2022/07/25 12:14:45;;;;;;;;;;;23.40;99.90;;;;;;5037723;28;19917;-78
2022/07/25 12:17:10;;;;;;;;;;;23.30;99.90;;;;;;5036842;28;20320;-78
2022/07/25 12:19:38;;;;;;;;;;;23.20;99.90;;;;;;5036126;28;19913;-77
2022/07/25 12:22:04;;;;;;;;;;;23.20;99.90;;;;;;5034755;28;19913;-76
2022/07/25 12:24:29;;;;;;;;;;;23.20;99.90;;;;;;5036195;28;20334;-81
2022/07/25 12:26:55;;;;;;;;;;;23.30;99.90;;;;;;5034886;28;19951;-76
2022/07/25 12:29:20;;;;;;;;;;;23.70;99.90;;;;;;5035280;28;19925;-76
2022/07/25 12:31:49;;;;;;;;;;;24.20;99.90;;;;;;5038916;28;19917;-78
2022/07/25 12:34:15;;;;;;;;;;;24.40;99.90;;;;;;5034197;28;19917;-80
2022/07/25 12:36:43;;;;;;;;;;;24.80;99.90;;;;;;5034712;28;20359;-79
2022/07/25 12:39:10;;;;;;;;;;;25.30;99.90;;;;;;5035290;28;20361;-76
2022/07/25 12:41:35;;;;;;;;;;;25.60;99.90;;;;;;5035863;28;19917;-78
2022/07/25 12:44:03;;;;;;;;;;;25.70;99.90;;;;;;5035723;28;20015;-75
2022/07/25 12:46:28;;;;;;;;;;;25.70;99.50;;;;;;5036554;28;19920;-77
2022/07/25 12:48:54;;;;;;;;;;;25.70;99.20;;;;;;5035498;28;19917;-81
2022/07/25 12:51:19;;;;;;;;;;;25.80;99.30;;;;;;5034917;28;20008;-79
2022/07/25 12:53:45;;;;;;;;;;;26.10;99.40;;;;;;5036892;28;20366;-77
2022/07/25 12:56:11;;;;;;;;;;;26.00;98.00;;;;;;5035992;28;19996;-78
2022/07/25 12:58:36;;;;;;;;;;;25.90;99.60;;;;;;5034579;28;20066;-79
2022/07/25 13:01:02;;;;;;;;;;;25.80;98.60;;;;;;5036411;28;20297;-78
2022/07/25 13:03:28;;;;;;;;;;;25.70;99.70;;;;;;5035158;28;19917;-79
2022/07/25 13:05:53;;;;;;;;;;;25.70;98.20;;;;;;5037092;28;19932;-80
2022/07/25 13:08:19;;;;;;;;;;;25.30;98.20;;;;;;5035087;28;19964;-76
2022/07/25 13:10:45;;;;;;;;;;;25.00;98.20;;;;;;5035842;28;19920;-81
2022/07/25 13:13:12;;;;;;;;;;;25.20;99.70;;;;;;5033450;28;19917;-78
2022/07/25 13:15:38;;;;;;;;;;;25.60;99.00;;;;;;5034446;28;20047;-77
2022/07/25 13:18:03;;;;;;;;;;;26.00;97.40;;;;;;5036626;28;20007;-76
2022/07/25 13:20:30;;;;;;;;;;;26.30;95.90;;;;;;5034491;28;19935;-78
2022/07/25 13:22:55;;;;;;;;;;;26.30;96.00;;;;;;5035962;28;19967;-77
2022/07/25 13:25:21;;;;;;;;;;;26.10;96.70;;;;;;5033674;28;19916;-75
2022/07/25 13:27:47;;;;;;;;;;;25.90;97.30;;;;;;5032371;28;19913;-78
2022/07/25 13:30:13;;;;;;;;;;;25.90;98.50;;;;;;5034598;28;19956;-79
2022/07/25 13:32:39;;;;;;;;;;;25.80;97.50;;;;;;5034916;28;19960;-76
2022/07/25 13:35:04;;;;;;;;;;;25.70;98.30;;;;;;5035063;28;19917;-77
2022/07/25 13:37:31;;;;;;;;;;;25.80;97.00;;;;;;5034878;28;20351;-76
2022/07/25 13:39:56;;;;;;;;;;;25.60;97.10;;;;;;5035442;28;20373;-81
2022/07/25 13:42:22;;;;;;;;;;;25.40;97.50;;;;;;5035424;28;19917;-78
2022/07/25 13:44:48;;;;;;;;;;;25.50;98.60;;;;;;5038535;28;19917;-78
2022/07/25 13:47:14;;;;;;;;;;;25.90;97.10;;;;;;5035423;28;19974;-75
2022/07/25 13:49:40;;;;;;;;;;;26.00;96.50;;;;;;5034075;28;19917;-78
2022/07/25 13:52:05;;;;;;;;;;;25.70;96.30;;;;;;5035246;28;20008;-78
2022/07/25 13:54:31;;;;;;;;;;;25.30;97.00;;;;;;5033782;28;19995;-86
2022/07/25 13:56:57;;;;;;;;;;;25.10;97.30;;;;;;5035887;28;19913;-84
2022/07/25 13:59:22;;;;;;;;;;;25.20;97.20;;;;;;5035394;28;19917;-76
2022/07/25 14:01:48;;;;;;;;;;;25.20;97.00;;;;;;5034497;28;19943;-79
2022/07/25 14:04:14;;;;;;;;;;;25.00;98.10;;;;;;5035862;28;19927;-77
2022/07/25 14:06:40;;;;;;;;;;;24.80;97.20;;;;;;5035188;28;19917;-76
2022/07/25 14:09:06;;;;;;;;;;;24.60;97.70;;;;;;5034388;28;19947;-78
2022/07/25 14:11:31;;;;;;;;;;;24.60;97.10;;;;;;5034009;28;19917;-81